Time;durP1;ratioP1;P1;durP2;ratioP2;P2;SDS_P1;SDS_P2;PMS_P1;PMS_P2;Temp;Humidity;BMP_temperature;BMP_pressure;BME280_temperature;BME280_humidity;BME280_pressure;Samples;Min_cycle;Max_cycle;Signal;HPM_P1;HPM_P2
2020/12/15 00:00:35;;;;;;;14.00;2.20;;;8.40;99.90;;;;;;5074428;28;20474;-62
2020/12/15 00:03:00;;;;;;;14.63;2.33;;;8.40;99.90;;;;;;5065855;28;20445;-63
2020/12/15 00:05:26;;;;;;;10.25;2.67;;;8.40;99.90;;;;;;5055642;28;20033;-61
2020/12/15 00:07:52;;;;;;;14.15;2.75;;;8.40;99.90;;;;;;5088499;28;20032;-59
2020/12/15 00:10:17;;;;;;;14.63;2.58;;;8.40;99.90;;;;;;5055070;28;21661;-60
2020/12/15 00:12:43;;;;;;;12.43;3.38;;;8.40;99.90;;;;;;5054309;28;20524;-60
2020/12/15 00:15:09;;;;;;;13.30;2.47;;;8.40;99.90;;;;;;5058535;28;20478;-60
2020/12/15 00:17:35;;;;;;;12.30;3.30;;;8.30;99.90;;;;;;5073361;28;20111;-61
2020/12/15 00:20:01;;;;;;;14.80;3.65;;;8.30;99.90;;;;;;5080485;28;20099;-60
2020/12/15 00:22:26;;;;;;;13.38;2.53;;;8.30;99.90;;;;;;5065003;28;20067;-60
2020/12/15 00:24:52;;;;;;;10.93;2.40;;;8.20;99.90;;;;;;5071000;28;20044;-60
2020/12/15 00:27:18;;;;;;;13.77;2.88;;;8.20;99.90;;;;;;5073092;28;20132;-60
2020/12/15 00:29:44;;;;;;;13.15;2.45;;;8.20;99.90;;;;;;5079473;28;20059;-60
2020/12/15 00:32:10;;;;;;;11.40;3.10;;;8.30;99.90;;;;;;5078093;28;20459;-60
2020/12/15 00:34:36;;;;;;;13.35;3.65;;;8.30;99.90;;;;;;5059220;28;20474;-60
2020/12/15 00:37:01;;;;;;;10.18;2.60;;;8.30;99.90;;;;;;5066931;28;20029;-60
2020/12/15 00:39:27;;;;;;;13.50;2.35;;;8.20;99.90;;;;;;5066900;28;20420;-63
2020/12/15 00:41:53;;;;;;;9.63;2.30;;;8.20;99.90;;;;;;5072246;28;20029;-60
2020/12/15 00:44:18;;;;;;;22.67;6.38;;;8.20;99.90;;;;;;5089185;28;20028;-60
2020/12/15 00:46:49;;;;;;;12.73;3.10;;;8.20;99.90;;;;;;5082399;28;20032;-61
2020/12/15 00:49:15;;;;;;;11.82;2.78;;;8.20;99.90;;;;;;5088978;28;20032;-60
2020/12/15 00:51:40;;;;;;;10.15;2.50;;;8.20;99.90;;;;;;5066372;28;20031;-60
2020/12/15 00:54:06;;;;;;;15.63;2.90;;;8.20;99.90;;;;;;5066899;28;20115;-60
2020/12/15 00:56:32;;;;;;;10.23;2.20;;;8.20;99.90;;;;;;5053824;28;20037;-60
2020/12/15 00:58:57;;;;;;;9.93;2.40;;;8.20;99.90;;;;;;5067521;28;20036;-60
2020/12/15 01:01:23;;;;;;;11.27;2.83;;;8.30;99.90;;;;;;5072052;28;20111;-60
2020/12/15 01:03:49;;;;;;;15.32;2.85;;;8.20;99.90;;;;;;5083638;28;20401;-60
2020/12/15 01:06:14;;;;;;;9.15;2.83;;;8.20;99.90;;;;;;5067935;28;20470;-61
2020/12/15 01:08:40;;;;;;;10.75;2.83;;;8.20;99.90;;;;;;5052360;28;20052;-62
2020/12/15 01:11:06;;;;;;;16.95;3.80;;;8.10;99.90;;;;;;5066015;28;20053;-60
2020/12/15 01:13:31;;;;;;;11.05;3.10;;;8.10;99.90;;;;;;5060957;28;20037;-60
2020/12/15 01:15:57;;;;;;;9.82;3.22;;;8.10;99.90;;;;;;5068955;28;20062;-60
2020/12/15 01:18:23;;;;;;;14.13;3.75;;;8.10;99.90;;;;;;5070184;28;20060;-60
2020/12/15 01:20:48;;;;;;;15.38;3.35;;;8.00;99.90;;;;;;5072539;28;20493;-59
2020/12/15 01:23:14;;;;;;;14.45;2.95;;;8.00;99.90;;;;;;5070706;28;20032;-61
2020/12/15 01:25:40;;;;;;;12.50;3.38;;;8.00;99.90;;;;;;5068397;28;20040;-61
2020/12/15 01:28:05;;;;;;;14.93;3.17;;;8.00;99.90;;;;;;5064756;28;20029;-60
2020/12/15 01:30:31;;;;;;;14.07;2.88;;;8.00;99.90;;;;;;5077428;28;20051;-61
2020/12/15 01:32:57;;;;;;;13.80;2.88;;;7.90;99.90;;;;;;5084301;28;20386;-60
2020/12/15 01:35:23;;;;;;;15.77;3.33;;;7.90;99.90;;;;;;5092515;28;20032;-60
2020/12/15 01:37:49;;;;;;;9.82;3.40;;;7.80;99.90;;;;;;5064747;28;20111;-60
2020/12/15 01:40:14;;;;;;;8.52;2.65;;;7.80;99.90;;;;;;5087221;28;20029;-59
2020/12/15 01:42:40;;;;;;;10.38;2.88;;;7.80;99.90;;;;;;5077776;28;20035;-62
2020/12/15 01:45:06;;;;;;;11.38;2.53;;;7.80;99.90;;;;;;5063598;28;20044;-61
2020/12/15 01:47:33;;;;;;;8.95;2.20;;;7.80;99.90;;;;;;5052190;28;20041;-60
2020/12/15 01:49:59;;;;;;;13.57;2.90;;;7.80;99.90;;;;;;5066911;28;20043;-60
2020/12/15 01:52:28;;;;;;;11.88;2.65;;;7.80;99.90;;;;;;5070594;28;20032;-61
2020/12/15 01:54:54;;;;;;;10.30;2.60;;;7.80;99.90;;;;;;5058853;28;20067;-59
2020/12/15 01:57:20;;;;;;;8.07;2.75;;;7.80;99.90;;;;;;5070296;28;20535;-60
2020/12/15 01:59:46;;;;;;;11.52;2.60;;;7.70;99.90;;;;;;5075973;28;20110;-59
2020/12/15 02:02:12;;;;;;;9.85;2.53;;;7.70;99.90;;;;;;5082823;28;20028;-60
2020/12/15 02:04:37;;;;;;;14.68;3.05;;;7.70;99.90;;;;;;5070499;28;20040;-59
2020/12/15 02:07:03;;;;;;;16.48;2.83;;;7.70;99.90;;;;;;5064349;28;20029;-61
2020/12/15 02:09:29;;;;;;;11.05;2.58;;;7.70;99.90;;;;;;5055214;28;20036;-61
2020/12/15 02:11:55;;;;;;;18.00;4.30;;;7.70;99.90;;;;;;5073174;28;20422;-60
2020/12/15 02:14:21;;;;;;;11.95;3.63;;;7.60;99.90;;;;;;5053208;28;20048;-60
2020/12/15 02:16:51;;;;;;;12.18;3.47;;;7.70;99.90;;;;;;5071108;28;20031;-59
2020/12/15 02:19:18;;;;;;;12.02;2.58;;;7.70;99.90;;;;;;5087736;28;20127;-59
2020/12/15 02:21:49;;;;;;;12.98;3.22;;;7.70;99.90;;;;;;5076057;28;20039;-60
2020/12/15 02:24:15;;;;;;;12.95;3.13;;;7.70;99.90;;;;;;5088305;28;20031;-60
2020/12/15 02:26:41;;;;;;;12.70;3.30;;;7.80;99.90;;;;;;5077385;28;20033;-60
2020/12/15 02:29:06;;;;;;;10.13;2.40;;;7.80;99.90;;;;;;5087215;28;20119;-62
2020/12/15 02:31:32;;;;;;;12.50;2.90;;;7.80;99.90;;;;;;5078844;28;20055;-61
2020/12/15 02:33:58;;;;;;;10.25;2.75;;;7.80;99.90;;;;;;5072008;28;20028;-60
2020/12/15 02:36:27;;;;;;;20.67;8.23;;;7.80;99.90;;;;;;5063527;28;20075;-60
2020/12/15 02:38:53;;;;;;;16.77;2.85;;;7.80;99.90;;;;;;5077801;28;20111;-60
2020/12/15 02:41:19;;;;;;;10.30;2.78;;;7.80;99.90;;;;;;5062312;28;20108;-61
2020/12/15 02:43:44;;;;;;;8.25;2.33;;;7.80;99.90;;;;;;5072087;28;20474;-60
2020/12/15 02:46:10;;;;;;;10.10;2.45;;;7.80;99.90;;;;;;5078155;28;20067;-59
2020/12/15 02:48:36;;;;;;;14.20;3.53;;;7.80;99.90;;;;;;5050558;28;20036;-60
2020/12/15 02:51:01;;;;;;;14.73;2.97;;;7.80;99.90;;;;;;5056934;28;20021;-60
2020/12/15 02:53:27;;;;;;;8.93;2.90;;;7.70;99.90;;;;;;5079311;28;20477;-60
2020/12/15 02:55:52;;;;;;;11.73;2.80;;;7.60;99.90;;;;;;5076197;28;20086;-60
2020/12/15 02:58:18;;;;;;;15.05;2.85;;;7.50;99.90;;;;;;5070262;28;20099;-59
2020/12/15 03:00:44;;;;;;;14.45;3.10;;;7.50;99.90;;;;;;5077512;28;20112;-61
2020/12/15 03:03:09;;;;;;;11.93;2.38;;;7.40;99.90;;;;;;5067887;28;20057;-61
2020/12/15 03:05:35;;;;;;;7.85;2.60;;;7.30;99.90;;;;;;5067647;28;20028;-60
2020/12/15 03:08:01;;;;;;;9.65;2.83;;;7.30;99.90;;;;;;5066269;28;20041;-59
2020/12/15 03:10:27;;;;;;;11.40;3.05;;;7.20;99.90;;;;;;5051408;28;20417;-59
2020/12/15 03:12:53;;;;;;;13.93;3.72;;;7.00;99.90;;;;;;5064479;28;20024;-62
2020/12/15 03:15:18;;;;;;;8.98;3.00;;;7.00;99.90;;;;;;5090720;28;20432;-60
2020/12/15 03:17:44;;;;;;;6.97;2.72;;;6.90;99.90;;;;;;5068501;28;20025;-61
2020/12/15 03:20:10;;;;;;;10.32;3.22;;;6.90;99.90;;;;;;5052580;28;20098;-60
2020/12/15 03:22:36;;;;;;;11.32;3.33;;;6.80;99.90;;;;;;5067255;28;20049;-60
2020/12/15 03:25:01;;;;;;;10.68;3.58;;;6.70;99.90;;;;;;5059947;28;20033;-60
2020/12/15 03:27:27;;;;;;;13.18;3.50;;;6.70;99.90;;;;;;5088719;28;20028;-61
2020/12/15 03:29:52;;;;;;;11.70;3.33;;;6.70;99.90;;;;;;5066132;28;20470;-61
2020/12/15 03:32:18;;;;;;;12.30;3.58;;;6.60;99.90;;;;;;5072520;28;20032;-59
2020/12/15 03:34:44;;;;;;;8.90;3.42;;;6.70;99.90;;;;;;5084470;28;20438;-60
2020/12/15 03:37:09;;;;;;;12.27;4.28;;;6.60;99.90;;;;;;5074255;28;20024;-60
2020/12/15 03:39:35;;;;;;;11.90;3.72;;;6.60;99.90;;;;;;5074021;28;20059;-61
2020/12/15 03:42:01;;;;;;;11.27;3.38;;;6.70;99.90;;;;;;5073258;28;20024;-60
2020/12/15 03:44:27;;;;;;;11.80;4.25;;;6.60;99.90;;;;;;5073387;28;20475;-61
2020/12/15 03:46:52;;;;;;;9.95;4.10;;;6.70;99.90;;;;;;5071925;28;20035;-59
2020/12/15 03:49:18;;;;;;;8.35;3.65;;;6.70;99.90;;;;;;5059399;28;20029;-60
2020/12/15 03:51:44;;;;;;;9.55;4.00;;;6.70;99.90;;;;;;5092411;28;20032;-60
2020/12/15 03:54:10;;;;;;;10.52;3.63;;;6.60;99.90;;;;;;5089060;28;20032;-62
2020/12/15 03:56:35;;;;;;;11.60;3.83;;;6.60;99.90;;;;;;5090155;28;20081;-61
2020/12/15 03:59:01;;;;;;;8.95;3.95;;;6.70;99.90;;;;;;5089615;28;20119;-59
2020/12/15 04:01:27;;;;;;;6.60;3.25;;;6.70;99.90;;;;;;5086240;28;20036;-61
2020/12/15 04:03:52;;;;;;;9.60;3.60;;;6.60;99.90;;;;;;5070346;28;20115;-60
2020/12/15 04:06:18;;;;;;;9.43;3.55;;;6.50;99.90;;;;;;5067412;28;20028;-59
2020/12/15 04:08:44;;;;;;;10.90;2.97;;;6.40;99.90;;;;;;5053703;28;20027;-61
2020/12/15 04:11:09;;;;;;;8.63;2.92;;;6.40;99.90;;;;;;5070383;28;20113;-60
2020/12/15 04:13:35;;;;;;;6.55;3.03;;;6.30;99.90;;;;;;5082895;28;20025;-61
2020/12/15 04:16:01;;;;;;;5.75;2.97;;;6.30;99.90;;;;;;5074360;28;20039;-60
2020/12/15 04:18:26;;;;;;;9.85;3.20;;;6.30;99.90;;;;;;5071843;28;20020;-60
2020/12/15 04:20:53;;;;;;;7.93;2.85;;;6.30;99.90;;;;;;5060811;28;20032;-60
2020/12/15 04:23:19;;;;;;;9.60;3.08;;;6.30;99.90;;;;;;5092689;28;20060;-60
2020/12/15 04:25:56;;;;;;;7.00;2.75;;;6.30;99.90;;;;;;5073634;28;20067;-60
2020/12/15 04:28:21;;;;;;;8.40;3.47;;;6.20;99.90;;;;;;5052611;28;20037;-62
2020/12/15 04:30:47;;;;;;;7.75;3.15;;;6.20;99.90;;;;;;5074652;28;20032;-61
2020/12/15 04:33:13;;;;;;;11.68;3.38;;;6.20;99.90;;;;;;5092143;28;20431;-61
2020/12/15 04:35:39;;;;;;;11.18;3.42;;;6.20;99.90;;;;;;5085303;28;20040;-60
2020/12/15 04:38:05;;;;;;;11.65;3.47;;;6.30;99.90;;;;;;5068628;28;20082;-60
2020/12/15 04:40:35;;;;;;;15.10;3.90;;;6.30;99.90;;;;;;5086854;28;20047;-60
2020/12/15 04:43:02;;;;;;;18.63;4.50;;;6.30;99.90;;;;;;5092436;28;20031;-62
2020/12/15 04:45:29;;;;;;;12.55;3.83;;;6.40;99.90;;;;;;5089537;28;20032;-61
2020/12/15 04:48:04;;;;;;;10.43;3.67;;;6.40;99.90;;;;;;5092504;28;20070;-60
2020/12/15 04:50:33;;;;;;;10.65;3.17;;;6.40;99.90;;;;;;5087116;28;20028;-59
2020/12/15 04:53:06;;;;;;;18.73;3.95;;;6.30;99.90;;;;;;5072764;28;20081;-59
2020/12/15 04:55:32;;;;;;;11.50;3.63;;;6.30;99.90;;;;;;5083628;28;20135;-60
2020/12/15 04:57:59;;;;;;;14.48;3.88;;;6.40;99.90;;;;;;5083929;28;20508;-59
2020/12/15 05:00:26;;;;;;;14.68;3.95;;;6.40;99.90;;;;;;5055897;28;20033;-59
2020/12/15 05:02:53;;;;;;;13.85;4.05;;;6.40;99.90;;;;;;5089817;28;20039;-60
2020/12/15 05:05:20;;;;;;;12.93;3.65;;;6.40;99.90;;;;;;5075574;28;20028;-59
2020/12/15 05:07:46;;;;;;;15.65;4.10;;;6.40;99.90;;;;;;5071978;28;20039;-61
2020/12/15 05:10:17;;;;;;;8.18;3.60;;;6.40;99.90;;;;;;5070903;28;20154;-61
2020/12/15 05:12:44;;;;;;;9.88;3.20;;;6.30;99.90;;;;;;5071001;28;20064;-60
2020/12/15 05:15:15;;;;;;;11.85;3.63;;;6.30;99.90;;;;;;5056390;28;20033;-60
2020/12/15 05:17:42;;;;;;;15.20;4.43;;;6.20;99.90;;;;;;5069546;28;20371;-59
2020/12/15 05:20:18;;;;;;;15.63;3.88;;;6.20;99.90;;;;;;5066822;28;20039;-60
2020/12/15 05:22:48;;;;;;;15.68;4.50;;;6.30;99.90;;;;;;5089056;28;20141;-61
2020/12/15 05:25:25;;;;;;;17.00;4.32;;;6.40;99.90;;;;;;5067550;28;20114;-59
2020/12/15 05:27:51;;;;;;;18.30;4.45;;;6.40;99.90;;;;;;5057902;28;20037;-60
2020/12/15 05:30:17;;;;;;;16.42;4.53;;;6.50;99.90;;;;;;5072669;28;20044;-60
2020/12/15 05:32:55;;;;;;;21.20;4.40;;;6.50;99.90;;;;;;5088826;28;20764;-60
2020/12/15 05:35:23;;;;;;;14.65;4.13;;;6.60;99.90;;;;;;5075862;28;20077;-59
2020/12/15 05:37:49;;;;;;;16.42;3.33;;;6.60;99.90;;;;;;5072746;28;20036;-59
2020/12/15 05:40:15;;;;;;;16.05;4.15;;;6.70;99.90;;;;;;5083419;28;20028;-60
2020/12/15 05:42:41;;;;;;;18.95;3.70;;;6.80;99.90;;;;;;5076645;28;20029;-61
2020/12/15 05:45:07;;;;;;;26.77;4.38;;;6.80;99.90;;;;;;5064486;28;20044;-61
2020/12/15 05:47:33;;;;;;;19.45;3.88;;;6.80;99.90;;;;;;5072344;28;20497;-60
2020/12/15 05:49:59;;;;;;;14.65;3.63;;;6.80;99.90;;;;;;5080451;28;20028;-60
2020/12/15 05:52:29;;;;;;;23.63;3.88;;;6.90;99.90;;;;;;5078792;28;20035;-59
2020/12/15 05:55:09;;;;;;;17.98;3.60;;;7.00;99.90;;;;;;5078089;28;20393;-60
2020/12/15 05:57:35;;;;;;;21.52;3.38;;;7.10;99.90;;;;;;5079057;28;20032;-61
2020/12/15 06:00:08;;;;;;;22.65;3.60;;;7.20;99.90;;;;;;5059212;28;20036;-58
2020/12/15 06:02:35;;;;;;;21.90;4.07;;;7.30;99.90;;;;;;5055206;28;20040;-60
2020/12/15 06:05:00;;;;;;;19.15;3.80;;;7.30;99.90;;;;;;5064046;28;20033;-61
2020/12/15 06:07:27;;;;;;;21.77;3.85;;;7.30;99.90;;;;;;5070954;28;20035;-62
2020/12/15 06:09:57;;;;;;;19.27;3.55;;;7.20;99.90;;;;;;5071284;28;20024;-60
2020/12/15 06:12:22;;;;;;;21.60;4.10;;;7.20;99.90;;;;;;5068040;28;20047;-60
2020/12/15 06:14:52;;;;;;;19.35;4.13;;;7.20;99.90;;;;;;5058419;28;20083;-61
2020/12/15 06:17:20;;;;;;;18.95;3.30;;;7.30;99.90;;;;;;5055051;28;20059;-61
2020/12/15 06:19:50;;;;;;;23.38;4.43;;;7.30;99.90;;;;;;5076147;28;20025;-59
2020/12/15 06:22:16;;;;;;;30.88;4.53;;;7.30;99.90;;;;;;5079350;28;20440;-59
2020/12/15 06:24:42;;;;;;;20.33;3.70;;;7.20;99.90;;;;;;5068901;28;20029;-59
2020/12/15 06:27:11;;;;;;;19.60;3.90;;;7.20;99.90;;;;;;5087073;28;20406;-60
2020/12/15 06:29:38;;;;;;;25.38;5.32;;;7.30;99.90;;;;;;5081783;28;20036;-61
2020/12/15 06:32:15;;;;;;;20.52;3.90;;;7.30;99.90;;;;;;5084405;28;20438;-60
2020/12/15 06:34:43;;;;;;;19.63;3.95;;;7.30;99.90;;;;;;5053013;28;20029;-59
2020/12/15 06:37:09;;;;;;;26.73;4.25;;;7.30;99.90;;;;;;5053904;28;20481;-60
2020/12/15 06:39:35;;;;;;;20.73;4.40;;;7.30;99.90;;;;;;5051015;28;20044;-59
2020/12/15 06:42:07;;;;;;;26.23;4.32;;;7.30;99.90;;;;;;5051587;28;20036;-60
2020/12/15 06:44:36;;;;;;;26.13;4.75;;;7.40;99.90;;;;;;5059972;28;20363;-58
2020/12/15 06:47:05;;;;;;;27.40;4.68;;;7.40;99.90;;;;;;5091773;28;20047;-62
2020/12/15 06:49:33;;;;;;;20.30;4.30;;;7.40;99.90;;;;;;5078890;28;20043;-59
2020/12/15 06:52:03;;;;;;;21.63;4.00;;;7.40;99.90;;;;;;5071283;28;20028;-60
2020/12/15 06:54:30;;;;;;;23.45;5.72;;;7.40;99.90;;;;;;5059804;28;20032;-61
2020/12/15 06:57:01;;;;;;;25.88;4.80;;;7.30;99.90;;;;;;5073981;28;20047;-60
2020/12/15 06:59:35;;;;;;;27.33;5.13;;;7.40;99.90;;;;;;5072633;28;20035;-61
2020/12/15 07:02:08;;;;;;;22.95;4.55;;;7.40;99.90;;;;;;5077729;28;20079;-60
2020/12/15 07:04:42;;;;;;;24.02;5.03;;;7.40;99.90;;;;;;5054605;28;20033;-59
2020/12/15 07:07:08;;;;;;;23.27;4.57;;;7.40;99.90;;;;;;5068329;28;20696;-60
2020/12/15 07:09:34;;;;;;;23.08;3.97;;;7.20;99.90;;;;;;5089324;28;20086;-60
2020/12/15 07:12:11;;;;;;;25.08;4.65;;;7.20;99.90;;;;;;5068007;28;20049;-60
2020/12/15 07:14:37;;;;;;;22.45;4.57;;;7.10;99.90;;;;;;5085644;28;20112;-59
2020/12/15 07:17:03;;;;;;;14.15;3.45;;;7.10;99.90;;;;;;5074100;28;20043;-60
2020/12/15 07:19:29;;;;;;;29.60;4.95;;;6.90;99.90;;;;;;5074395;28;20033;-59
2020/12/15 07:21:54;;;;;;;26.15;4.85;;;6.80;99.90;;;;;;5069880;28;20036;-59
2020/12/15 07:24:20;;;;;;;15.15;4.18;;;6.80;99.90;;;;;;5054257;28;20036;-61
2020/12/15 07:26:47;;;;;;;16.77;4.10;;;6.60;99.90;;;;;;5058467;28;20025;-60
2020/12/15 07:29:17;;;;;;;12.30;3.80;;;6.50;99.90;;;;;;5054590;28;20112;-59
2020/12/15 07:31:43;;;;;;;17.98;4.68;;;6.50;99.90;;;;;;5065896;28;20039;-60
2020/12/15 07:34:11;;;;;;;12.70;3.70;;;6.40;99.90;;;;;;5090140;28;20032;-61
2020/12/15 07:36:40;;;;;;;26.60;5.82;;;6.30;99.90;;;;;;5079894;28;20040;-60
2020/12/15 07:39:05;;;;;;;24.42;5.75;;;6.40;99.90;;;;;;5054001;28;20529;-59
2020/12/15 07:41:41;;;;;;;23.35;5.32;;;6.50;99.90;;;;;;5078518;28;20032;-60
2020/12/15 07:44:18;;;;;;;18.85;4.85;;;6.50;99.90;;;;;;5075061;28;20036;-59
2020/12/15 07:46:46;;;;;;;15.32;4.50;;;6.20;99.90;;;;;;5065746;28;20029;-60
2020/12/15 07:49:13;;;;;;;19.73;4.65;;;6.20;99.90;;;;;;5088983;28;20059;-61
2020/12/15 07:51:43;;;;;;;26.80;6.55;;;6.10;99.90;;;;;;5071310;28;20059;-59
2020/12/15 07:54:09;;;;;;;27.17;9.18;;;6.40;99.90;;;;;;5075515;28;20473;-61
2020/12/15 07:56:34;;;;;;;23.67;5.95;;;6.60;99.90;;;;;;5073887;28;20060;-60
2020/12/15 07:59:01;;;;;;;26.17;6.45;;;6.60;99.90;;;;;;5088274;28;20039;-60
2020/12/15 08:01:29;;;;;;;19.27;5.93;;;6.50;99.90;;;;;;5073357;28;20024;-61
2020/12/15 08:04:09;;;;;;;27.40;7.28;;;6.60;99.90;;;;;;5081506;28;20060;-60
2020/12/15 08:06:41;;;;;;;20.83;5.78;;;6.60;99.90;;;;;;5070291;28;20033;-61
2020/12/15 08:09:10;;;;;;;18.50;5.60;;;6.60;99.90;;;;;;5070716;28;20024;-59
2020/12/15 08:11:36;;;;;;;15.60;4.82;;;6.40;99.90;;;;;;5074169;28;20110;-62
2020/12/15 08:14:04;;;;;;;15.68;4.85;;;6.20;99.90;;;;;;5074133;28;20025;-59
2020/12/15 08:16:31;;;;;;;22.35;5.45;;;6.10;99.90;;;;;;5061562;28;20108;-60
2020/12/15 08:19:04;;;;;;;15.13;4.75;;;6.10;99.90;;;;;;5068676;28;20157;-59
2020/12/15 08:21:50;;;;;;;14.90;4.40;;;6.10;99.90;;;;;;5075710;28;20032;-60
2020/12/15 08:24:26;;;;;;;13.18;4.75;;;6.00;99.90;;;;;;5061890;28;20032;-60
2020/12/15 08:26:53;;;;;;;16.17;4.15;;;5.90;99.90;;;;;;5076425;28;20028;-60
2020/12/15 08:29:20;;;;;;;17.35;4.45;;;5.70;99.90;;;;;;5073204;28;20488;-60
2020/12/15 08:31:46;;;;;;;16.80;5.45;;;5.60;99.90;;;;;;5073246;28;20540;-61
2020/12/15 08:34:15;;;;;;;24.50;5.80;;;5.70;99.90;;;;;;5075355;28;20530;-59
2020/12/15 08:36:45;;;;;;;11.50;4.30;;;5.70;99.90;;;;;;5079112;28;20062;-60
2020/12/15 08:39:12;;;;;;;14.35;4.70;;;5.70;99.90;;;;;;5074142;28;20052;-60
2020/12/15 08:41:55;;;;;;;23.70;5.82;;;5.60;99.90;;;;;;5074115;28;20028;-60
2020/12/15 08:44:22;;;;;;;13.68;4.72;;;5.70;99.90;;;;;;5080855;28;20036;-61
2020/12/15 08:46:54;;;;;;;16.90;4.47;;;5.70;99.90;;;;;;5074946;28;20032;-60
2020/12/15 08:49:21;;;;;;;17.95;5.18;;;5.70;99.90;;;;;;5078313;28;20043;-62
2020/12/15 08:51:48;;;;;;;18.52;5.90;;;5.80;99.90;;;;;;5075143;28;20039;-59
2020/12/15 08:54:15;;;;;;;16.83;6.07;;;5.90;99.90;;;;;;5089639;28;20416;-60
2020/12/15 08:56:41;;;;;;;15.80;4.80;;;6.00;99.90;;;;;;5083538;28;20116;-61
2020/12/15 08:59:16;;;;;;;16.10;5.20;;;5.90;99.90;;;;;;5075135;28;20040;-60
2020/12/15 09:01:43;;;;;;;28.20;9.32;;;5.90;99.90;;;;;;5073161;28;20486;-59
2020/12/15 09:04:10;;;;;;;14.43;5.38;;;5.90;99.90;;;;;;5080200;28;20473;-61
2020/12/15 09:06:38;;;;;;;13.32;4.50;;;5.80;99.90;;;;;;5068241;28;20039;-61
2020/12/15 09:09:06;;;;;;;16.08;4.90;;;5.70;99.90;;;;;;5067984;28;20415;-61
2020/12/15 09:11:32;;;;;;;17.45;4.35;;;5.90;99.90;;;;;;5086999;28;20033;-61
2020/12/15 09:14:02;;;;;;;12.98;4.03;;;5.90;99.90;;;;;;5088556;28;20032;-60
2020/12/15 09:16:34;;;;;;;14.30;4.63;;;5.90;99.90;;;;;;5078258;28;20439;-61
2020/12/15 09:19:17;;;;;;;18.80;4.38;;;5.90;99.90;;;;;;5076424;28;20497;-59
2020/12/15 09:21:56;;;;;;;21.98;4.70;;;5.80;99.90;;;;;;5072955;28;20032;-61
2020/12/15 09:24:21;;;;;;;15.60;4.97;;;5.80;99.90;;;;;;5076386;28;20040;-60
2020/12/15 09:26:47;;;;;;;26.23;5.35;;;5.80;99.90;;;;;;5066609;28;20031;-61
2020/12/15 09:29:13;;;;;;;24.63;5.57;;;6.10;99.90;;;;;;5077505;28;20480;-59
2020/12/15 09:31:39;;;;;;;20.83;5.20;;;6.40;99.90;;;;;;5074678;28;20044;-61
2020/12/15 09:34:05;;;;;;;14.98;4.63;;;6.30;99.90;;;;;;5074759;28;20036;-59
2020/12/15 09:36:32;;;;;;;13.27;4.30;;;6.20;99.90;;;;;;5070328;28;20047;-61
2020/12/15 09:38:58;;;;;;;21.92;5.68;;;6.10;99.90;;;;;;5076532;28;20020;-60
2020/12/15 09:41:24;;;;;;;19.08;5.22;;;6.30;99.90;;;;;;5072006;28;20087;-61
2020/12/15 09:43:50;;;;;;;24.35;5.30;;;6.30;99.90;;;;;;5075194;28;20048;-60
2020/12/15 09:46:15;;;;;;;24.92;5.90;;;6.40;99.90;;;;;;5082459;28;20446;-61
2020/12/15 09:48:41;;;;;;;25.88;4.72;;;6.70;99.90;;;;;;5073336;28;20102;-60
2020/12/15 09:51:10;;;;;;;18.73;4.68;;;7.00;99.90;;;;;;5059793;28;20036;-60
2020/12/15 09:53:36;;;;;;;21.02;4.63;;;7.00;99.90;;;;;;5062389;28;20032;-61
2020/12/15 09:56:01;;;;;;;24.00;4.20;;;7.10;99.90;;;;;;5069205;28;20020;-62
2020/12/15 09:58:28;;;;;;;22.05;4.55;;;7.30;99.90;;;;;;5074532;28;20036;-59
2020/12/15 10:00:54;;;;;;;20.50;5.75;;;7.20;99.90;;;;;;5072282;28;20064;-59
2020/12/15 10:03:20;;;;;;;20.83;4.22;;;7.30;99.90;;;;;;5074806;28;20048;-61
2020/12/15 10:05:46;;;;;;;26.30;5.05;;;7.50;99.90;;;;;;5070525;28;20043;-60
2020/12/15 10:08:12;;;;;;;28.27;5.28;;;7.60;99.90;;;;;;5073241;28;20526;-60
2020/12/15 10:10:37;;;;;;;21.23;4.32;;;7.60;99.90;;;;;;5071337;28;20131;-60
2020/12/15 10:13:03;;;;;;;21.77;4.40;;;7.60;99.90;;;;;;5078668;28;20068;-60
2020/12/15 10:15:29;;;;;;;28.33;4.55;;;7.70;99.90;;;;;;5082627;28;20100;-61
2020/12/15 10:17:55;;;;;;;25.17;4.68;;;7.90;99.90;;;;;;5072591;28;20025;-60
2020/12/15 10:20:21;;;;;;;28.63;5.10;;;8.00;99.90;;;;;;5071046;28;20082;-61
2020/12/15 10:22:47;;;;;;;28.52;5.35;;;8.10;99.90;;;;;;5064880;28;20063;-60
2020/12/15 10:25:13;;;;;;;20.73;4.30;;;8.10;99.90;;;;;;5063878;28;20029;-60
2020/12/15 10:27:38;;;;;;;25.02;4.60;;;8.20;99.90;;;;;;5066824;28;20039;-61
2020/12/15 10:30:04;;;;;;;27.15;4.80;;;8.30;99.90;;;;;;5081425;28;20458;-60
2020/12/15 10:32:30;;;;;;;28.58;4.47;;;8.30;99.90;;;;;;5087112;28;20051;-60
2020/12/15 10:34:56;;;;;;;26.10;5.07;;;8.50;99.90;;;;;;5069855;28;20111;-60
2020/12/15 10:37:22;;;;;;;24.23;4.40;;;8.50;99.90;;;;;;5068869;28;20032;-61
2020/12/15 10:39:49;;;;;;;19.73;4.78;;;8.50;99.90;;;;;;5086893;28;20032;-59
2020/12/15 10:42:15;;;;;;;23.85;4.35;;;8.60;99.90;;;;;;5085553;28;20028;-61
2020/12/15 10:44:41;;;;;;;22.08;4.40;;;8.70;99.90;;;;;;5091857;28;20055;-61
2020/12/15 10:47:06;;;;;;;26.20;5.03;;;8.70;99.90;;;;;;5073021;28;20067;-61
2020/12/15 10:49:32;;;;;;;24.38;5.45;;;8.80;99.90;;;;;;5071629;28;20551;-61
2020/12/15 10:51:58;;;;;;;26.27;4.97;;;8.90;99.90;;;;;;5054669;28;20033;-60
2020/12/15 10:54:25;;;;;;;26.80;4.85;;;9.00;99.90;;;;;;5051320;28;20037;-61
2020/12/15 10:56:52;;;;;;;24.42;4.70;;;9.00;99.90;;;;;;5050739;28;20029;-61
2020/12/15 10:59:17;;;;;;;20.80;4.35;;;9.10;99.90;;;;;;5051196;28;20164;-62
2020/12/15 11:01:43;;;;;;;22.10;3.88;;;9.20;99.90;;;;;;5050486;28;20116;-60
2020/12/15 11:04:09;;;;;;;20.17;3.83;;;9.20;99.90;;;;;;5051278;28;20364;-61
2020/12/15 11:06:36;;;;;;;26.77;5.22;;;9.20;99.90;;;;;;5064698;28;20027;-62
2020/12/15 11:09:03;;;;;;;20.88;3.60;;;9.30;99.90;;;;;;5055445;28;20029;-60
2020/12/15 11:11:29;;;;;;;23.05;4.30;;;9.30;99.90;;;;;;5051595;28;20052;-60
2020/12/15 11:13:55;;;;;;;20.02;3.50;;;9.40;99.90;;;;;;5051228;28;20031;-62
2020/12/15 11:16:21;;;;;;;16.77;3.97;;;9.30;99.90;;;;;;5063564;28;20016;-62
2020/12/15 11:18:48;;;;;;;15.70;3.50;;;9.30;99.90;;;;;;5070914;28;20032;-60
2020/12/15 11:21:13;;;;;;;19.17;3.75;;;9.40;99.90;;;;;;5057668;28;20471;-61
2020/12/15 11:23:40;;;;;;;19.60;6.00;;;9.40;99.90;;;;;;5051094;28;20040;-63
2020/12/15 11:26:06;;;;;;;16.70;3.65;;;9.40;99.90;;;;;;5065295;28;20046;-60
2020/12/15 11:28:31;;;;;;;24.80;4.00;;;9.40;99.90;;;;;;5071140;28;20029;-62
2020/12/15 11:30:57;;;;;;;16.83;4.22;;;9.40;99.90;;;;;;5069815;28;20477;-60
2020/12/15 11:33:23;;;;;;;15.50;2.47;;;9.30;99.90;;;;;;5071094;28;20760;-60
2020/12/15 11:35:50;;;;;;;19.08;3.00;;;9.30;99.90;;;;;;5064207;28;20135;-60
2020/12/15 11:38:17;;;;;;;13.43;2.72;;;9.30;99.90;;;;;;5071370;28;20032;-61
2020/12/15 11:40:44;;;;;;;18.85;2.72;;;9.40;99.90;;;;;;5057265;28;20058;-63
2020/12/15 11:43:09;;;;;;;9.85;2.55;;;9.40;99.90;;;;;;5070302;28;20081;-62
2020/12/15 11:45:35;;;;;;;16.42;2.97;;;9.50;99.90;;;;;;5061998;28;20037;-61
2020/12/15 11:48:01;;;;;;;14.57;2.75;;;9.60;99.90;;;;;;5054622;28;20033;-61
2020/12/15 11:50:29;;;;;;;16.35;3.65;;;9.70;99.90;;;;;;5055293;28;20099;-60
2020/12/15 11:52:59;;;;;;;15.43;3.00;;;9.70;99.90;;;;;;5053708;28;20075;-61
2020/12/15 11:55:25;;;;;;;16.52;3.05;;;9.70;99.90;;;;;;5064476;28;20056;-61
2020/12/15 11:57:52;;;;;;;17.00;4.05;;;9.80;99.90;;;;;;5071701;28;20511;-62
2020/12/15 12:00:18;;;;;;;12.07;2.63;;;9.80;99.90;;;;;;5071475;28;20028;-62
2020/12/15 12:02:43;;;;;;;11.75;2.20;;;9.90;99.90;;;;;;5061575;28;20033;-62
2020/12/15 12:05:09;;;;;;;13.98;2.97;;;9.90;99.90;;;;;;5055722;28;20043;-60
2020/12/15 12:07:35;;;;;;;17.55;2.80;;;10.00;99.90;;;;;;5072054;28;20025;-61
2020/12/15 12:10:00;;;;;;;12.95;2.42;;;10.00;99.90;;;;;;5073745;28;20379;-63
2020/12/15 12:12:26;;;;;;;15.27;3.35;;;10.00;99.90;;;;;;5073124;28;20024;-62
2020/12/15 12:14:52;;;;;;;9.65;2.00;;;10.10;99.90;;;;;;5074241;28;20051;-61
2020/12/15 12:17:17;;;;;;;17.00;3.60;;;10.10;99.90;;;;;;5072047;28;20039;-62
2020/12/15 12:19:43;;;;;;;15.23;3.05;;;10.10;99.90;;;;;;5074075;28;20036;-61
2020/12/15 12:22:09;;;;;;;16.83;2.72;;;10.20;99.90;;;;;;5071844;28;20474;-62
2020/12/15 12:24:35;;;;;;;14.73;2.53;;;10.20;99.90;;;;;;5073760;28;20044;-60
2020/12/15 12:27:00;;;;;;;12.98;2.80;;;10.20;99.90;;;;;;5073090;28;20028;-60
2020/12/15 12:29:27;;;;;;;9.15;2.67;;;10.20;99.90;;;;;;5073819;28;20147;-60
2020/12/15 12:31:52;;;;;;;9.27;2.20;;;10.30;99.90;;;;;;5072991;28;20746;-62
2020/12/15 12:34:18;;;;;;;13.25;2.35;;;10.30;99.90;;;;;;5073005;28;20111;-60
2020/12/15 12:36:44;;;;;;;14.25;2.80;;;10.20;99.90;;;;;;5072718;28;20051;-61
2020/12/15 12:39:10;;;;;;;9.98;2.22;;;10.30;99.90;;;;;;5073869;28;20481;-61
2020/12/15 12:41:36;;;;;;;13.13;2.15;;;10.30;99.90;;;;;;5073010;28;20025;-59
2020/12/15 12:44:02;;;;;;;13.85;2.95;;;10.30;99.90;;;;;;5073519;28;20040;-62
2020/12/15 12:46:27;;;;;;;13.13;2.35;;;10.40;99.90;;;;;;5072524;28;20040;-62